Nearby METAR Reports

 

KSJC - San Jose, California, USA
Distance from station: NE 9mi, 14km
Updated: Tue, 18-Jun-2024 3:53pm MDT
Light rain, Mostly cloudy
Light rain, Mostly cloudy
 Wind from NNW
Wind: NNW 16 mph , 26 km/h
Temperature: 84°F , 29°C
Dew Point: 43°F , 6°C
Humidity: 23%
Barometer: 29.80 inHg , 1009.1 hPa
Summary: Light rain
Clouds: Mostly cloudy
Visibility: 10 miles , 16 km
Cloud details: Few Clouds 7000 ft
Mostly cloudy 9500 ft
Mostly cloudy 16000 ft
2024/06/18 21:53 KSJC 182153Z 33014KT 10SM -RA FEW070 BKN095 BKN160 29/06 A2980 RMK AO2 RAB53 SLP089 P0000 T02890056
KNUQ - Moffett Nas/Mtn, California, USA
Distance from station: N 9mi, 14km
Updated: Tue, 18-Jun-2024 4:15pm MDT
Clear
Clear
 Wind from N
Wind: N 13 mph , 20 km/h
Temperature: 77°F , 25°C
Dew Point: 55°F , 13°C
Humidity: 47%
Barometer: 29.81 inHg , 1009.5 hPa
Clouds: Clear
Visibility: 8 miles , 13 km
2024/06/18 22:15 KNUQ 182215Z AUTO 35011KT 8SM CLR 25/13 A2981 RMK AO2
 
KPAO - Palo Alto, California, USA
Distance from station: NNW 14mi, 23km
Updated: Tue, 18-Jun-2024 3:47pm MDT
Smoke, Mostly cloudy
Smoke, Mostly cloudy
 Wind from NNW
Wind: NNW 13 mph , 20 km/h
Temperature: 72°F , 22°C
Dew Point: 55°F , 13°C
Humidity: 57%
Barometer: 29.81 inHg , 1009.5 hPa
Summary: Smoke
Clouds: Mostly cloudy
Visibility: 10 miles , 16 km
Cloud details: Mostly cloudy 20000 ft
2024/06/18 21:47 KPAO 182147Z 33011KT 10SM FU BKN200 22/13 A2981
KRHV - San Jose/Reid, California, USA
Distance from station: ENE 12mi, 19km
Updated: Tue, 18-Jun-2024 3:47pm MDT
Clear
Clear
 Wind from NW
Wind: NW 10 mph , 17 km/h
Temperature: 86°F , 30°C
Dew Point: 30°F , -1°C
Humidity: 13%
Barometer: 29.80 inHg , 1009.1 hPa
Clouds: Clear
Visibility: 10 miles , 16 km
2024/06/18 21:47 KRHV 182147Z 31009KT 10SM SKC 30/M01 A2980
 
KOAK - Oakland, California, USA
Distance from station: NNW 31mi, 50km
Updated: Tue, 18-Jun-2024 3:53pm MDT
Mostly cloudy
Mostly cloudy
 Wind from WNW
Wind: WNW 18 mph , 30 km/h, Gust: 32 mph , 52 km/h
Temperature: 73°F , 23°C
Dew Point: 52°F , 11°C
Humidity: 47%
Barometer: 29.83 inHg , 1010.2 hPa
Clouds: Mostly cloudy
Visibility: 10 miles , 16 km
Cloud details: Mostly cloudy 25000 ft
2024/06/18 21:53 KOAK 182153Z 29016G28KT 10SM BKN250 23/11 A2983 RMK AO2 PK WND 30028/2152 SLP101 T02330106
KSQL - San Carlos Airpo, California, USA
Distance from station: NW 21mi, 34km
Updated: Tue, 18-Jun-2024 3:47pm MDT
Partly cloudy
Partly cloudy
 Wind from W
Wind: W 17 mph , 28 km/h
Temperature: 75°F , 24°C
Dew Point: 43°F , 6°C
Humidity: 31%
Barometer: 29.82 inHg , 1009.8 hPa
Clouds: Partly cloudy
Visibility: 10 miles , 16 km
Cloud details: Partly cloudy 20000 ft
2024/06/18 21:47 KSQL 182147Z 27015KT 10SM SCT200 24/06 A2982
 
KSFO - San Francisco, California, USA
Distance from station: NW 30mi, 49km
Updated: Tue, 18-Jun-2024 3:56pm MDT
Mostly cloudy
Mostly cloudy
 Wind from W
Wind: W 25 mph , 41 km/h, Gust: 33 mph , 54 km/h
Temperature: 70°F , 21°C
Dew Point: 46°F , 8°C
Humidity: 43%
Barometer: 29.84 inHg , 1010.5 hPa
Clouds: Mostly cloudy
Visibility: 10 miles , 16 km
Cloud details: Mostly cloudy 20000 ft
2024/06/18 21:56 KSFO 182156Z 28022G29KT 10SM BKN200 21/08 A2984 RMK AO2 PK WND 29029/2151 SLP105 T02060078
KE16 - San Martin, California, USA
Distance from station: ESE 27mi, 43km
Updated: Tue, 18-Jun-2024 4:15pm MDT
Clear
Clear
 Wind from NW
Wind: NW 12 mph , 19 km/h, Gust: 18 mph , 30 km/h
Temperature: 86°F , 30°C
Dew Point: 23°F , -5°C
Humidity: 10%
Barometer: 29.79 inHg , 1008.8 hPa
Clouds: Clear
Visibility: 10 miles , 16 km
2024/06/18 22:15 KE16 182215Z AUTO 32010G16KT 310V030 10SM CLR 30/M05 A2979 RMK AO2 PWINO PNO
 
KWVI - Watsonville, California, USA
Distance from station: SSE 27mi, 44km
Updated: Tue, 18-Jun-2024 3:53pm MDT
Clear
Clear
 Wind from S
Wind: S 10 mph , 17 km/h
Temperature: 68°F , 20°C
Dew Point: 50°F , 10°C
Humidity: 53%
Barometer: 29.85 inHg , 1010.8 hPa
Clouds: Clear
Visibility: 10 miles , 16 km
2024/06/18 21:53 KWVI 182153Z AUTO 18009KT 10SM CLR 20/10 A2985 RMK AO2 SLP106 T02000100 PWINO $
KHAF - Half Moon Bay, California, USA
Distance from station: WNW 31mi, 50km
Updated: Tue, 18-Jun-2024 4:35pm MDT
Haze, Clear
Haze, Clear
 Wind from NW
Wind: NW 15 mph , 24 km/h
Temperature: 57°F , 14°C
Dew Point: 52°F , 11°C
Humidity: 82%
Barometer: 29.88 inHg , 1011.9 hPa
Summary: Haze
Clouds: Clear
Visibility: 5 miles , 8 km
2024/06/18 22:35 KHAF 182235Z AUTO 31013KT 5SM HZ CLR 14/11 A2988 RMK AO2
 
KHWD - Hayward, California, USA
Distance from station: N 28mi, 44km
Updated: Tue, 18-Jun-2024 3:54pm MDT
Clear
Clear
 Wind from W
Wind: W 13 mph , 20 km/h
Temperature: 77°F , 25°C
Dew Point: 50°F , 10°C
Humidity: 39%
Barometer: 29.82 inHg , 1009.8 hPa
Clouds: Clear
Visibility: 10 miles , 16 km
2024/06/18 21:54 KHWD 182154Z 28011KT 10SM CLR 25/10 A2982 RMK AO2 SLP106 T02500100
KLVK - Livermore, California, USA
Distance from station: NNE 31mi, 51km
Updated: Tue, 18-Jun-2024 3:53pm MDT
Clear
Clear
 Wind from W
Wind: W 13 mph , 20 km/h
Temperature: 84°F , 29°C
Dew Point: 36°F , 2°C
Humidity: 18%
Barometer: 29.79 inHg , 1008.8 hPa
Clouds: Clear
Visibility: 10 miles , 16 km
2024/06/18 21:53 KLVK 182153Z 27011KT 10SM CLR 29/02 A2979 RMK AO2 SLP083 T02940017